KFRM

Details ICAO KFRM
Name FAIRMONT MUNI
Region United States
Timezone America/Chicago (UTC-6.0)
Plans Departing 0
Arriving 1
Stats Elevation 1,162 ft / 354 m (AMSL)
Location 43.643898° -94.414935°
Runways 2
Magnetic Variation 1.260° E
Sunrise 2017-12-14 13:45:05 UTC / 2017-12-14 07:45:05 Local
Sunset 2017-12-14 22:42:38 UTC / 2017-12-14 16:42:38 Local
Advertisement - Login to hide

Runways

ID Width Length Bearing (true) Bearing (mag) Surface Threshold Offset Overrun Length
02 75 ft / 23 m 3,301 ft / 1,006 m 27.97° 26.71° Asphalt 0 ft / 0 m 0 ft / 0 m
13 100 ft / 30 m 5,500 ft / 1,677 m 134.21° 132.95° Asphalt 0 ft / 0 m 0 ft / 0 m
20 75 ft / 23 m 3,301 ft / 1,006 m 207.98° 206.72° Asphalt 0 ft / 0 m 0 ft / 0 m
31 100 ft / 30 m 5,500 ft / 1,677 m 314.22° 312.96° Asphalt 0 ft / 0 m 0 ft / 0 m

Map

Weather


0- 5 10 15 20 25 30 35+ Temperature / ° C

Clouds and Precipitation
Forecast for 2017-12-15 00:00 UTC. Updated 2 hours ago

Ground ~20,000 ft ~40,000 ft Winds

METAR

KFRM 141956Z AUTO 33010KT 10SM OVC018 M02/M06 A3003 RMK AO2 SLP190 T10221061 FZRANO

TAF

Not found

Frequencies

Unicom 122.80 MHz CTAF/UNICOM
Warning: Do not use this data for real-world aviation or navigation. No guarantee of current accuracy is given.